WMT401 LRBS-LROP
Flight info
| Callsign | WMT401 |
|---|---|
| Flight time | 0h -16m |
| Altitude | 34000 |
| Route | IFR TO VFR |
| Aircraft | A21N/M-SDE2E3FGHIRWXY/LB1 |
Departure
| Time | 2026-05-06 18:56 |
|---|---|
| Airport | Bucharest Băneasa Aurel Vlaicu International Airport (LRBS) |
Arrival
| Time | 2026-05-06 18:40 |
|---|---|
| Airport | Bucharest Henri Coandă International Airport (LROP) |
| Time | Latitude | Longitude | Altitude | Speed | Heading |
|---|---|---|---|---|---|
| 2026-05-06 18:40 | 44.49712 | 26.08503 | 313 ft | 0 kts | 164° |
| 2026-05-06 18:52 | 44.49702 | 26.08505 | 313 ft | 3 kts | 176° |
| 2026-05-06 18:53 | 44.49690 | 26.08495 | 313 ft | 3 kts | 244° |
| 2026-05-06 18:53 | 44.49694 | 26.08453 | 313 ft | 7 kts | 322° |
| 2026-05-06 18:53 | 44.49735 | 26.08449 | 313 ft | 5 kts | 0° |
| 2026-05-06 18:53 | 44.49772 | 26.08412 | 313 ft | 9 kts | 290° |
| 2026-05-06 18:54 | 44.49777 | 26.08311 | 313 ft | 12 kts | 273° |
| 2026-05-06 18:54 | 44.49789 | 26.08228 | 313 ft | 7 kts | 287° |
| 2026-05-06 18:54 | 44.49823 | 26.08167 | 313 ft | 10 kts | 336° |
| 2026-05-06 18:54 | 44.49897 | 26.08196 | 312 ft | 14 kts | 52° |
| 2026-05-06 18:55 | 44.49919 | 26.08282 | 313 ft | 3 kts | 73° |
| 2026-05-06 18:55 | 44.49928 | 26.08322 | 313 ft | 6 kts | 73° |
| 2026-05-06 18:55 | 44.49944 | 26.08398 | 313 ft | 10 kts | 73° |
| 2026-05-06 18:55 | 44.49968 | 26.08510 | 313 ft | 14 kts | 73° |
| 2026-05-06 18:56 | 44.50037 | 26.08845 | 314 ft | 78 kts | 73° |
| 2026-05-06 18:56 | 44.50263 | 26.09952 | 326 ft | 152 kts | 74° |
| 2026-05-06 18:56 | 44.50590 | 26.11487 | 917 ft | 172 kts | 67° |
| 2026-05-06 18:56 | 44.51427 | 26.12748 | 1816 ft | 193 kts | 34° |
| 2026-05-06 18:57 | 44.52799 | 26.13261 | 2522 ft | 225 kts | 1° |
| 2026-05-06 18:57 | 44.54497 | 26.12912 | 3045 ft | 267 kts | 348° |
| 2026-05-06 18:57 | 44.56356 | 26.12302 | 3116 ft | 270 kts | 346° |
| 2026-05-06 18:57 | 44.58061 | 26.11221 | 3037 ft | 270 kts | 323° |
| 2026-05-06 18:58 | 44.59292 | 26.09267 | 2963 ft | 268 kts | 298° |
| 2026-05-06 18:58 | 44.59822 | 26.06799 | 2972 ft | 266 kts | 274° |
| 2026-05-06 18:58 | 44.59837 | 26.04207 | 3029 ft | 265 kts | 267° |
| 2026-05-06 18:58 | 44.59651 | 26.01642 | 2997 ft | 263 kts | 258° |
| 2026-05-06 18:59 | 44.59286 | 25.99122 | 2975 ft | 264 kts | 256° |
| 2026-05-06 18:59 | 44.58897 | 25.96601 | 2993 ft | 264 kts | 256° |
| 2026-05-06 18:59 | 44.58505 | 25.94074 | 3050 ft | 264 kts | 256° |
| 2026-05-06 18:59 | 44.58122 | 25.91603 | 3008 ft | 264 kts | 256° |
| 2026-05-06 19:00 | 44.57721 | 25.89046 | 2995 ft | 265 kts | 256° |
| 2026-05-06 19:00 | 44.57327 | 25.86531 | 2902 ft | 264 kts | 256° |
| 2026-05-06 19:00 | 44.56730 | 25.84111 | 2910 ft | 264 kts | 238° |
| 2026-05-06 19:00 | 44.55958 | 25.82761 | 2889 ft | 261 kts | 221° |
| 2026-05-06 19:01 | 44.53843 | 25.81295 | 2784 ft | 258 kts | 188° |
| 2026-05-06 19:01 | 44.52072 | 25.81374 | 2673 ft | 255 kts | 169° |
| 2026-05-06 19:01 | 44.50327 | 25.81887 | 2523 ft | 255 kts | 166° |
| 2026-05-06 19:01 | 44.48608 | 25.82440 | 2480 ft | 253 kts | 166° |
| 2026-05-06 19:02 | 44.46916 | 25.83112 | 2394 ft | 252 kts | 154° |
| 2026-05-06 19:02 | 44.45543 | 25.84608 | 2434 ft | 252 kts | 130° |
| 2026-05-06 19:02 | 44.44748 | 25.86774 | 2474 ft | 254 kts | 109° |
| 2026-05-06 19:02 | 44.44494 | 25.89192 | 2473 ft | 248 kts | 86° |
| 2026-05-06 19:03 | 44.44762 | 25.90757 | 2477 ft | 243 kts | 69° |
| 2026-05-06 19:03 | 44.45717 | 25.92615 | 2450 ft | 239 kts | 44° |
| 2026-05-06 19:03 | 44.47043 | 25.94089 | 2183 ft | 239 kts | 41° |
| 2026-05-06 19:03 | 44.48049 | 25.95732 | 2274 ft | 202 kts | 71° |
| 2026-05-06 19:04 | 44.48285 | 25.97604 | 1852 ft | 200 kts | 89° |
| 2026-05-06 19:04 | 44.48416 | 25.99465 | 1586 ft | 180 kts | 86° |
| 2026-05-06 19:04 | 44.48609 | 26.01165 | 1279 ft | 167 kts | 82° |
| 2026-05-06 19:04 | 44.48799 | 26.02562 | 1107 ft | 135 kts | 82° |
| 2026-05-06 19:05 | 44.49022 | 26.03767 | 912 ft | 125 kts | 75° |
| 2026-05-06 19:05 | 44.49249 | 26.04940 | 773 ft | 124 kts | 78° |
| 2026-05-06 19:05 | 44.49480 | 26.06103 | 664 ft | 124 kts | 75° |
| 2026-05-06 19:05 | 44.49715 | 26.07254 | 518 ft | 122 kts | 74° |
| 2026-05-06 19:06 | 44.49950 | 26.08397 | 328 ft | 123 kts | 75° |
| 2026-05-06 19:06 | 44.50167 | 26.09482 | 374 ft | 124 kts | 75° |
| 2026-05-06 19:06 | 44.50466 | 26.10856 | 802 ft | 167 kts | 72° |
| 2026-05-06 19:06 | 44.50891 | 26.12532 | 1579 ft | 192 kts | 73° |
| 2026-05-06 19:07 | 44.51323 | 26.14325 | 2405 ft | 196 kts | 75° |
| 2026-05-06 19:07 | 44.51737 | 26.16179 | 2782 ft | 201 kts | 75° |
| 2026-05-06 19:07 | 44.52142 | 26.18069 | 3024 ft | 202 kts | 75° |
| 2026-05-06 19:07 | 44.52547 | 26.19965 | 3058 ft | 202 kts | 75° |
| 2026-05-06 19:08 | 44.52962 | 26.21842 | 3050 ft | 203 kts | 69° |
| 2026-05-06 19:08 | 44.53857 | 26.23411 | 3016 ft | 208 kts | 36° |
| 2026-05-06 19:08 | 44.55194 | 26.24073 | 2941 ft | 208 kts | 4° |
| 2026-05-06 19:08 | 44.56657 | 26.24021 | 2854 ft | 209 kts | 356° |
| 2026-05-06 19:09 | 44.58110 | 26.23861 | 2784 ft | 211 kts | 356° |
| 2026-05-06 19:09 | 44.59650 | 26.23711 | 2817 ft | 237 kts | 356° |
| 2026-05-06 19:09 | 44.61314 | 26.23537 | 2689 ft | 236 kts | 356° |
| 2026-05-06 19:09 | 44.62927 | 26.23215 | 2474 ft | 236 kts | 341° |
| 2026-05-06 19:10 | 44.64300 | 26.21960 | 2496 ft | 237 kts | 311° |
| 2026-05-06 19:10 | 44.65088 | 26.19959 | 2507 ft | 234 kts | 282° |
| 2026-05-06 19:10 | 44.65227 | 26.17708 | 2411 ft | 229 kts | 268° |
| 2026-05-06 19:10 | 44.65199 | 26.15490 | 2234 ft | 228 kts | 266° |
| 2026-05-06 19:11 | 44.65160 | 26.13242 | 2032 ft | 232 kts | 266° |
| 2026-05-06 19:11 | 44.65131 | 26.10960 | 1741 ft | 234 kts | 266° |
| 2026-05-06 19:11 | 44.65102 | 26.08684 | 1478 ft | 230 kts | 266° |
| 2026-05-06 19:11 | 44.65069 | 26.06496 | 1445 ft | 216 kts | 266° |
| 2026-05-06 19:12 | 44.65038 | 26.04396 | 1446 ft | 212 kts | 266° |
| 2026-05-06 19:12 | 44.65009 | 26.02320 | 1478 ft | 213 kts | 266° |
| 2026-05-06 19:12 | 44.64984 | 26.00233 | 1477 ft | 210 kts | 266° |
| 2026-05-06 19:12 | 44.64964 | 25.98274 | 1449 ft | 191 kts | 266° |
| 2026-05-06 19:13 | 44.64952 | 25.96546 | 1590 ft | 159 kts | 264° |
| 2026-05-06 19:13 | 44.64757 | 25.95173 | 1495 ft | 139 kts | 242° |
| 2026-05-06 19:13 | 44.64222 | 25.94094 | 1491 ft | 135 kts | 220° |
| 2026-05-06 19:13 | 44.63462 | 25.93386 | 1482 ft | 130 kts | 199° |
| 2026-05-06 19:14 | 44.62604 | 25.93118 | 1488 ft | 124 kts | 180° |
| 2026-05-06 19:14 | 44.61748 | 25.93094 | 1475 ft | 124 kts | 178° |
| 2026-05-06 19:14 | 44.60884 | 25.93051 | 1476 ft | 124 kts | 178° |
| 2026-05-06 19:14 | 44.60020 | 25.93017 | 1469 ft | 124 kts | 178° |
| 2026-05-06 19:15 | 44.59149 | 25.92982 | 1476 ft | 125 kts | 178° |
| 2026-05-06 19:15 | 44.58286 | 25.93053 | 1467 ft | 123 kts | 166° |
| 2026-05-06 19:15 | 44.57487 | 25.93486 | 1495 ft | 123 kts | 149° |
| 2026-05-06 19:15 | 44.56819 | 25.94221 | 1467 ft | 123 kts | 134° |
| 2026-05-06 19:16 | 44.56319 | 25.95211 | 1506 ft | 123 kts | 120° |
| 2026-05-06 19:16 | 44.56087 | 25.96348 | 1478 ft | 123 kts | 97° |
| 2026-05-06 19:16 | 44.56019 | 25.97543 | 1527 ft | 122 kts | 99° |
| 2026-05-06 19:16 | 44.55941 | 25.98731 | 1498 ft | 122 kts | 99° |
| 2026-05-06 19:17 | 44.56091 | 25.99913 | 1428 ft | 129 kts | 71° |
| 2026-05-06 19:17 | 44.56530 | 26.01014 | 1228 ft | 128 kts | 65° |
| 2026-05-06 19:17 | 44.56915 | 26.02124 | 1072 ft | 126 kts | 71° |
| 2026-05-06 19:17 | 44.57162 | 26.03298 | 954 ft | 126 kts | 78° |
| 2026-05-06 19:18 | 44.57334 | 26.04490 | 805 ft | 124 kts | 81° |
| 2026-05-06 19:18 | 44.57467 | 26.05684 | 732 ft | 123 kts | 84° |
| 2026-05-06 19:18 | 44.57560 | 26.06883 | 534 ft | 124 kts | 85° |
| 2026-05-06 19:18 | 44.57646 | 26.08075 | 386 ft | 122 kts | 85° |
| 2026-05-06 19:19 | 44.57729 | 26.09222 | 325 ft | 109 kts | 85° |
| 2026-05-06 19:19 | 44.57769 | 26.09824 | 326 ft | 11 kts | 85° |
| 2026-05-06 19:19 | 44.57772 | 26.09945 | 327 ft | 14 kts | 103° |
| 2026-05-06 19:19 | 44.57695 | 26.09937 | 326 ft | 12 kts | 232° |
| 2026-05-06 19:20 | 44.57679 | 26.09903 | 324 ft | 5 kts | 237° |
| 2026-05-06 19:20 | 44.57653 | 26.09850 | 326 ft | 8 kts | 229° |
| 2026-05-06 19:20 | 44.57592 | 26.09818 | 326 ft | 11 kts | 178° |
| 2026-05-06 19:20 | 44.57504 | 26.09826 | 324 ft | 9 kts | 202° |
| 2026-05-06 19:21 | 44.57460 | 26.09828 | 324 ft | 8 kts | 171° |
| 2026-05-06 19:21 | 44.57394 | 26.09843 | 323 ft | 11 kts | 171° |
| 2026-05-06 19:21 | 44.57305 | 26.09862 | 323 ft | 15 kts | 173° |
| 2026-05-06 19:21 | 44.57194 | 26.09878 | 326 ft | 18 kts | 174° |
| 2026-05-06 19:22 | 44.57105 | 26.09890 | 323 ft | 0 kts | 174° |
| 2026-05-06 19:22 | 44.57092 | 26.09891 | 324 ft | 3 kts | 173° |
| 2026-05-06 19:22 | 44.57076 | 26.09894 | 323 ft | 1 kts | 171° |
| 2026-05-06 19:22 | 44.57056 | 26.09899 | 324 ft | 5 kts | 172° |
| 2026-05-06 19:23 | 44.57040 | 26.09902 | 324 ft | 2 kts | 175° |
| 2026-05-06 19:23 | 44.57014 | 26.09904 | 326 ft | 5 kts | 177° |
| 2026-05-06 19:23 | 44.56969 | 26.09910 | 324 ft | 7 kts | 174° |
| 2026-05-06 19:23 | 44.56954 | 26.09912 | 324 ft | 2 kts | 175° |
| 2026-05-06 19:24 | 44.56944 | 26.09914 | 326 ft | 0 kts | 174° |